createdAt,value
2017-11-22T00:00:22.441Z,81.90
2017-11-22T00:02:50.873Z,82.40
2017-11-22T00:05:19.319Z,82.10
2017-11-22T00:07:48.222Z,82.50
2017-11-22T00:10:16.658Z,82.20
2017-11-22T00:12:45.119Z,82.10
2017-11-22T00:15:14.315Z,82.00
2017-11-22T00:17:43.516Z,81.60
2017-11-22T00:20:11.987Z,81.60
2017-11-22T00:22:41.188Z,82.30
2017-11-22T00:25:10.370Z,82.40
2017-11-22T00:27:38.834Z,82.40
2017-11-22T00:30:07.277Z,82.40
2017-11-22T00:32:35.714Z,82.50
2017-11-22T00:35:04.232Z,82.40
2017-11-22T00:37:33.558Z,83.30
2017-11-22T00:40:01.987Z,82.30
2017-11-22T00:42:31.218Z,82.10
2017-11-22T00:44:59.640Z,82.10
2017-11-22T00:47:28.065Z,82.00
2017-11-22T00:49:56.510Z,82.00
2017-11-22T00:52:25.667Z,82.90
2017-11-22T00:54:54.040Z,83.60
2017-11-22T00:57:22.424Z,83.00
2017-11-22T00:59:50.800Z,82.40
2017-11-22T01:02:19.167Z,82.80
2017-11-22T01:04:47.563Z,83.60
2017-11-22T01:07:15.941Z,83.60
2017-11-22T01:09:44.319Z,84.00
2017-11-22T01:12:12.784Z,84.00
2017-11-22T01:14:41.161Z,83.40
2017-11-22T01:17:09.539Z,83.20
2017-11-22T01:19:37.934Z,83.40
2017-11-22T01:22:06.302Z,84.50
2017-11-22T01:24:34.672Z,84.40
2017-11-22T01:27:03.089Z,84.80
2017-11-22T01:29:31.632Z,84.20
2017-11-22T01:32:00.012Z,85.10
2017-11-22T01:34:29.054Z,85.20
2017-11-22T01:36:57.870Z,85.40
2017-11-22T01:39:27.193Z,84.50
2017-11-22T01:41:55.573Z,84.50
2017-11-22T01:44:23.951Z,84.70
2017-11-22T01:46:51.666Z,84.80
2017-11-22T01:49:20.494Z,84.30
2017-11-22T01:51:48.878Z,84.30
2017-11-22T01:54:17.350Z,83.50
2017-11-22T01:56:45.735Z,83.40
2017-11-22T01:59:14.116Z,82.80
2017-11-22T02:01:42.496Z,82.70
2017-11-22T02:04:10.883Z,82.90
2017-11-22T02:06:39.259Z,82.90
2017-11-22T02:09:07.988Z,82.60
2017-11-22T02:11:37.136Z,82.10
2017-11-22T02:14:05.561Z,82.00
2017-11-22T02:16:34.690Z,82.20
2017-11-22T02:19:03.101Z,82.00
2017-11-22T02:21:31.147Z,81.60
2017-11-22T02:23:59.510Z,80.80
2017-11-22T02:26:28.678Z,80.20
2017-11-22T02:28:57.825Z,80.20
2017-11-22T02:31:25.545Z,80.20
2017-11-22T02:33:54.699Z,79.70
2017-11-22T02:36:23.084Z,79.60
2017-11-22T02:38:51.943Z,79.90
2017-11-22T02:41:19.992Z,80.10
2017-11-22T02:43:49.107Z,80.60
2017-11-22T02:46:17.482Z,79.80
2017-11-22T02:48:45.538Z,79.90
2017-11-22T02:51:13.903Z,80.60
2017-11-22T02:53:42.270Z,80.50
2017-11-22T02:56:10.758Z,81.40
2017-11-22T02:58:40.397Z,81.70
2017-11-22T03:01:08.872Z,81.70
2017-11-22T03:03:37.276Z,81.60
2017-11-22T03:06:05.656Z,83.10
2017-11-22T03:08:34.037Z,84.40
2017-11-22T03:11:02.424Z,83.50
2017-11-22T03:13:30.792Z,83.10
2017-11-22T03:15:59.158Z,82.30
2017-11-22T03:18:27.618Z,82.60
2017-11-22T03:20:56.094Z,82.30
2017-11-22T03:23:24.468Z,82.40
2017-11-22T03:25:52.858Z,83.50
2017-11-22T03:28:21.332Z,82.10
2017-11-22T03:30:49.705Z,82.60
2017-11-22T03:33:18.087Z,83.20
2017-11-22T03:35:45.802Z,84.50
2017-11-22T03:38:13.850Z,85.20
2017-11-22T03:40:42.232Z,86.60
2017-11-22T03:43:10.317Z,85.40
2017-11-22T03:45:38.693Z,85.70
2017-11-22T03:48:12.745Z,85.30
2017-11-22T03:50:46.609Z,85.90
2017-11-22T03:53:20.416Z,87.00
2017-11-22T03:55:48.454Z,87.20
2017-11-22T03:58:16.826Z,87.70
2017-11-22T04:00:45.308Z,87.10
2017-11-22T04:03:16.322Z,87.00
2017-11-22T04:05:50.183Z,87.60
2017-11-22T04:08:19.433Z,87.30
2017-11-22T04:10:47.812Z,88.60
2017-11-22T04:13:16.196Z,88.50
2017-11-22T04:15:44.579Z,89.50
2017-11-22T04:18:12.954Z,89.20
2017-11-22T04:23:35.171Z,88.70
2017-11-22T04:26:04.340Z,90.30
2017-11-22T04:28:32.382Z,90.30
2017-11-22T04:31:00.750Z,90.40
2017-11-22T04:33:29.137Z,90.70
2017-11-22T04:35:57.516Z,91.20
2017-11-22T04:38:25.899Z,90.70
2017-11-22T04:40:54.280Z,90.70
2017-11-22T04:43:22.016Z,90.90
2017-11-22T04:45:50.060Z,91.00
2017-11-22T04:48:19.252Z,91.20
2017-11-22T04:50:47.804Z,91.10
2017-11-22T04:53:17.687Z,91.70
2017-11-22T04:55:46.076Z,91.70
2017-11-22T04:58:14.460Z,92.00
2017-11-22T05:00:42.499Z,92.10
2017-11-22T05:03:11.742Z,92.40
2017-11-22T05:05:40.110Z,92.50
2017-11-22T05:08:08.682Z,92.60
2017-11-22T05:10:37.073Z,92.10
2017-11-22T05:13:05.456Z,91.40
2017-11-22T05:15:34.408Z,90.90
2017-11-22T05:18:02.791Z,90.60
2017-11-22T05:20:31.170Z,90.40
2017-11-22T05:22:59.546Z,90.30
2017-11-22T05:25:28.003Z,90.10
2017-11-22T05:27:56.382Z,90.00
2017-11-22T05:30:24.764Z,90.10
2017-11-22T05:32:53.140Z,89.90
2017-11-22T05:35:21.532Z,89.60
2017-11-22T05:37:49.963Z,89.60
2017-11-22T05:40:18.349Z,89.70
2017-11-22T05:42:47.519Z,89.60
2017-11-22T05:45:15.891Z,89.50
2017-11-22T05:47:44.282Z,89.60
2017-11-22T05:50:12.655Z,89.30
2017-11-22T05:52:41.036Z,89.40
2017-11-22T05:55:08.764Z,89.40
2017-11-22T05:57:37.146Z,89.40
2017-11-22T06:00:05.331Z,89.50
2017-11-22T06:02:34.274Z,89.50
2017-11-22T06:05:03.412Z,89.50
2017-11-22T06:07:31.782Z,89.50
2017-11-22T06:10:00.165Z,89.50
2017-11-22T06:12:28.542Z,89.40
2017-11-22T06:14:56.923Z,89.30
2017-11-22T06:17:25.301Z,89.20
2017-11-22T06:19:53.681Z,89.20
2017-11-22T06:22:22.048Z,88.90
2017-11-22T06:24:51.322Z,88.60
2017-11-22T06:27:19.704Z,88.50
2017-11-22T06:29:49.879Z,88.30
2017-11-22T06:32:18.997Z,88.10
2017-11-22T06:34:48.149Z,88.00
2017-11-22T06:37:16.512Z,88.00
2017-11-22T06:39:44.569Z,88.20
2017-11-22T06:42:12.947Z,88.30
2017-11-22T06:44:41.981Z,88.20
2017-11-22T06:47:10.365Z,88.30
2017-11-22T06:49:38.746Z,89.00
2017-11-22T06:52:07.116Z,89.10
2017-11-22T06:54:35.506Z,89.30
2017-11-22T06:57:03.886Z,89.40
2017-11-22T06:59:33.026Z,89.90
2017-11-22T07:02:01.526Z,89.90
2017-11-22T07:04:29.902Z,89.50
2017-11-22T07:06:58.295Z,89.40
2017-11-22T07:09:26.682Z,88.70
2017-11-22T07:11:55.046Z,88.50
2017-11-22T07:14:23.597Z,87.60
2017-11-22T07:16:57.555Z,86.90
2017-11-22T07:19:25.982Z,87.10
2017-11-22T07:21:54.512Z,87.00
2017-11-22T07:24:23.056Z,86.70
2017-11-22T07:26:51.674Z,87.20
2017-11-22T07:29:20.042Z,86.40
2017-11-22T07:31:48.610Z,86.40
2017-11-22T07:34:17.565Z,86.20
2017-11-22T07:36:45.931Z,86.10
2017-11-22T07:39:15.083Z,84.30
2017-11-22T07:41:43.656Z,84.20
2017-11-22T07:44:12.051Z,81.70
2017-11-22T07:46:40.748Z,78.00
2017-11-22T07:49:11.947Z,72.60
2017-11-22T07:51:45.787Z,66.50
2017-11-22T07:54:14.205Z,63.80
2017-11-22T07:56:42.592Z,61.40
2017-11-22T07:59:11.006Z,60.40
2017-11-22T08:01:39.378Z,62.20
2017-11-22T08:04:13.343Z,62.90
2017-11-22T08:06:42.160Z,63.10
2017-11-22T08:09:11.268Z,63.10
2017-11-22T08:11:39.331Z,62.40
2017-11-22T08:14:07.706Z,63.10
2017-11-22T08:16:36.912Z,63.20
2017-11-22T08:19:05.318Z,63.20
2017-11-22T08:21:34.554Z,63.90
2017-11-22T08:24:02.953Z,63.30
2017-11-22T08:26:30.689Z,63.40
2017-11-22T08:28:59.830Z,63.30
2017-11-22T08:31:28.426Z,63.20
2017-11-22T08:33:56.815Z,64.10
2017-11-22T08:36:25.957Z,62.50
2017-11-22T08:38:54.340Z,62.50
2017-11-22T08:41:25.670Z,62.40
2017-11-22T08:43:55.868Z,61.30
2017-11-22T08:46:25.643Z,56.10
2017-11-22T08:48:54.026Z,56.00
2017-11-22T08:51:22.413Z,56.30
2017-11-22T08:53:50.860Z,53.30
2017-11-22T08:56:21.180Z,51.90
2017-11-22T08:58:49.583Z,50.40
2017-11-22T09:01:17.975Z,49.90
2017-11-22T09:03:46.376Z,50.70
2017-11-22T09:06:21.131Z,47.70
2017-11-22T09:08:50.057Z,47.70
2017-11-22T09:11:18.441Z,47.90
2017-11-22T09:13:46.828Z,47.60
2017-11-22T09:16:15.220Z,48.40
2017-11-22T09:18:44.359Z,45.00
2017-11-22T09:21:12.742Z,45.00
2017-11-22T09:23:41.127Z,45.10
2017-11-22T09:26:09.502Z,42.20
2017-11-22T09:28:37.878Z,42.60
2017-11-22T09:31:11.715Z,43.50
2017-11-22T09:33:40.094Z,43.40
2017-11-22T09:36:08.471Z,41.20
2017-11-22T09:38:37.103Z,40.40
2017-11-22T09:41:05.494Z,41.90
2017-11-22T09:43:33.871Z,38.30
2017-11-22T09:46:02.258Z,37.30
2017-11-22T09:48:30.635Z,38.90
2017-11-22T09:50:59.036Z,38.90
2017-11-22T09:53:27.435Z,36.80
2017-11-22T09:55:55.806Z,37.10
2017-11-22T09:58:24.961Z,37.60
2017-11-22T10:00:53.342Z,37.60
2017-11-22T10:03:21.723Z,38.50
2017-11-22T10:05:50.228Z,37.10
2017-11-22T10:08:18.616Z,38.60
2017-11-22T10:10:46.993Z,36.10
2017-11-22T10:13:15.363Z,35.30
2017-11-22T10:15:43.749Z,34.50
2017-11-22T10:18:11.934Z,34.50
2017-11-22T10:20:46.667Z,35.00
2017-11-22T10:23:21.239Z,35.80
2017-11-22T10:25:49.446Z,35.90
2017-11-22T10:28:17.635Z,35.80
2017-11-22T10:30:46.600Z,35.80
2017-11-22T10:33:15.056Z,35.70
2017-11-22T10:35:43.102Z,37.50
2017-11-22T10:38:11.480Z,41.00
2017-11-22T10:40:39.911Z,41.70
2017-11-22T10:43:08.292Z,42.20
2017-11-22T10:45:36.679Z,42.10
2017-11-22T10:48:05.835Z,43.80
2017-11-22T10:50:34.220Z,43.70
2017-11-22T10:53:02.607Z,44.30
2017-11-22T10:55:30.679Z,44.50
2017-11-22T10:57:58.730Z,43.40
2017-11-22T11:00:26.604Z,45.20
2017-11-22T11:02:55.013Z,43.00
2017-11-22T11:05:24.175Z,43.30
2017-11-22T11:07:52.561Z,43.20
2017-11-22T11:10:20.966Z,44.00
2017-11-22T11:12:49.350Z,44.10
2017-11-22T11:15:18.506Z,44.40
2017-11-22T11:17:46.943Z,44.30
2017-11-22T11:20:15.328Z,44.60
2017-11-22T11:22:43.714Z,44.90
2017-11-22T11:25:12.095Z,45.10
2017-11-22T11:27:40.477Z,46.20
2017-11-22T11:30:08.857Z,44.30
2017-11-22T11:32:37.260Z,47.50
2017-11-22T11:35:05.648Z,46.50
2017-11-22T11:37:33.719Z,44.40
2017-11-22T11:40:01.779Z,44.60
2017-11-22T11:42:29.511Z,45.80
2017-11-22T11:44:57.567Z,44.40
2017-11-22T11:47:25.622Z,44.90
2017-11-22T11:49:54.766Z,44.80
2017-11-22T11:52:23.158Z,44.80
2017-11-22T11:54:51.909Z,45.90
2017-11-22T11:57:19.964Z,44.60
2017-11-22T11:59:48.988Z,45.70
2017-11-22T12:02:18.944Z,44.00
2017-11-22T12:04:47.404Z,44.60
2017-11-22T12:07:15.802Z,46.80
2017-11-22T12:09:44.962Z,44.30
2017-11-22T12:12:13.165Z,44.30
2017-11-22T12:14:41.564Z,43.50
2017-11-22T12:17:10.729Z,45.50
2017-11-22T12:19:39.123Z,45.50
2017-11-22T12:22:13.384Z,46.70
2017-11-22T12:24:41.779Z,48.00
2017-11-22T12:27:10.175Z,48.40
2017-11-22T12:29:38.579Z,46.90
2017-11-22T12:32:07.724Z,48.60
2017-11-22T12:34:36.103Z,47.90
2017-11-22T12:37:04.510Z,47.10
2017-11-22T12:39:32.896Z,46.10
2017-11-22T12:42:01.268Z,46.80
2017-11-22T12:44:29.659Z,46.80
2017-11-22T12:46:59.635Z,46.80
2017-11-22T12:49:28.033Z,46.80
2017-11-22T12:51:56.428Z,48.60
2017-11-22T12:54:25.063Z,45.80
2017-11-22T12:56:53.487Z,46.20
2017-11-22T12:59:21.871Z,47.00
2017-11-22T13:01:51.040Z,43.10
2017-11-22T13:04:19.435Z,42.90
2017-11-22T13:06:47.500Z,43.10
2017-11-22T13:09:15.881Z,43.20
2017-11-22T13:11:51.051Z,43.40
2017-11-22T13:14:19.446Z,42.70
2017-11-22T13:16:49.396Z,40.70
2017-11-22T13:19:18.972Z,40.80
2017-11-22T13:21:46.732Z,40.60
2017-11-22T13:24:15.108Z,41.00
2017-11-22T13:26:43.991Z,41.20
2017-11-22T13:29:12.366Z,40.30
2017-11-22T13:31:40.753Z,39.80
2017-11-22T13:34:09.149Z,40.80
2017-11-22T13:36:37.063Z,39.90
2017-11-22T13:39:06.420Z,41.20
2017-11-22T13:41:36.935Z,41.20
2017-11-22T13:44:04.660Z,41.10
2017-11-22T13:46:33.167Z,42.80
2017-11-22T13:49:01.223Z,42.80
2017-11-22T13:51:29.267Z,42.30
2017-11-22T13:53:57.682Z,40.40
2017-11-22T13:56:25.753Z,41.70
2017-11-22T13:58:54.129Z,40.90
2017-11-22T14:01:25.037Z,41.60
2017-11-22T14:03:53.328Z,41.60
2017-11-22T14:06:21.711Z,41.10
2017-11-22T14:08:49.440Z,44.20
2017-11-22T14:11:17.672Z,42.60
2017-11-22T14:13:45.719Z,41.90
2017-11-22T14:16:14.563Z,42.30
2017-11-22T14:18:42.835Z,42.30
2017-11-22T14:21:10.562Z,42.60
2017-11-22T14:23:38.275Z,44.50
2017-11-22T14:26:05.994Z,42.20
2017-11-22T14:28:34.041Z,41.40
2017-11-22T14:31:02.082Z,42.50
2017-11-22T14:33:30.923Z,42.30
2017-11-22T14:35:59.159Z,42.20
2017-11-22T14:38:27.938Z,43.30
2017-11-22T14:40:56.430Z,46.30
2017-11-22T14:43:25.245Z,46.50
2017-11-22T14:45:52.957Z,46.40
2017-11-22T14:48:20.689Z,46.60
2017-11-22T14:50:48.408Z,44.60
2017-11-22T14:53:17.603Z,44.10
2017-11-22T14:55:45.935Z,44.70
2017-11-22T14:58:13.651Z,46.90
2017-11-22T15:00:41.373Z,47.30
2017-11-22T15:03:09.103Z,47.90
2017-11-22T15:05:36.828Z,46.60
2017-11-22T15:08:04.548Z,47.30
2017-11-22T15:10:32.872Z,47.90
2017-11-22T15:13:00.600Z,48.70
2017-11-22T15:15:28.329Z,48.30
2017-11-22T15:17:56.504Z,48.90
2017-11-22T15:20:24.220Z,48.70
2017-11-22T15:22:52.704Z,51.40
2017-11-22T15:25:22.246Z,52.80
2017-11-22T15:27:49.972Z,52.60
2017-11-22T15:30:18.455Z,53.20
2017-11-22T15:32:46.186Z,53.20
2017-11-22T15:35:13.903Z,55.90
2017-11-22T15:37:41.619Z,56.40
2017-11-22T15:40:10.771Z,55.70
2017-11-22T15:42:38.482Z,55.70
2017-11-22T15:45:07.626Z,58.30
2017-11-22T15:47:36.023Z,58.30
2017-11-22T15:50:04.412Z,57.60
2017-11-22T15:52:32.448Z,59.10
2017-11-22T15:55:00.843Z,62.50
2017-11-22T15:57:29.377Z,64.60
2017-11-22T15:59:57.878Z,64.10
2017-11-22T16:02:25.927Z,65.00
2017-11-22T16:04:53.968Z,65.90
2017-11-22T16:07:22.347Z,65.00
2017-11-22T16:09:50.733Z,66.60
2017-11-22T16:12:19.883Z,68.20
2017-11-22T16:14:48.267Z,68.20
2017-11-22T16:17:17.069Z,68.80
2017-11-22T16:19:47.178Z,68.40
2017-11-22T16:22:15.229Z,68.40
2017-11-22T16:24:43.620Z,69.90
2017-11-22T16:27:12.003Z,68.80
2017-11-22T16:29:40.383Z,70.60
2017-11-22T16:32:08.767Z,70.00
2017-11-22T16:34:37.151Z,72.20
2017-11-22T16:37:05.972Z,71.40
2017-11-22T16:39:35.134Z,72.70
2017-11-22T16:42:03.513Z,72.60
2017-11-22T16:44:32.100Z,74.30
2017-11-22T16:47:00.469Z,74.90
2017-11-22T16:49:28.522Z,74.60
2017-11-22T16:51:56.720Z,75.90
2017-11-22T16:54:25.339Z,76.10
2017-11-22T16:56:54.484Z,76.50
2017-11-22T16:59:22.864Z,76.40
2017-11-22T17:01:51.304Z,77.20
2017-11-22T17:04:19.688Z,77.20
2017-11-22T17:06:47.412Z,77.70
2017-11-22T17:09:16.808Z,79.10
2017-11-22T17:11:44.855Z,79.10
2017-11-22T17:14:12.911Z,79.10
2017-11-22T17:16:41.294Z,78.90
2017-11-22T17:19:09.677Z,78.80
2017-11-22T17:21:38.105Z,79.00
2017-11-22T17:24:07.260Z,78.10
2017-11-22T17:26:35.638Z,78.10
2017-11-22T17:29:04.022Z,77.90
2017-11-22T17:31:32.469Z,76.60
2017-11-22T17:34:00.841Z,77.20
2017-11-22T17:36:28.881Z,77.40
2017-11-22T17:38:58.022Z,78.10
2017-11-22T17:41:26.491Z,78.10
2017-11-22T17:43:54.887Z,78.20
2017-11-22T17:46:23.279Z,78.40
2017-11-22T17:48:51.659Z,79.10
2017-11-22T17:51:20.027Z,79.90
2017-11-22T17:53:48.421Z,79.30
2017-11-22T17:56:16.808Z,80.50
2017-11-22T17:58:45.375Z,80.30
2017-11-22T18:01:13.099Z,80.90
2017-11-22T18:03:41.482Z,81.60
2017-11-22T18:06:09.851Z,81.90
2017-11-22T18:08:38.235Z,82.60
2017-11-22T18:11:06.278Z,82.80
2017-11-22T18:13:34.339Z,83.30
2017-11-22T18:16:02.411Z,83.40
2017-11-22T18:18:31.556Z,84.10
2017-11-22T18:20:59.292Z,84.10
2017-11-22T18:23:27.044Z,84.30
2017-11-22T18:25:55.436Z,84.80
2017-11-22T18:28:23.819Z,85.40
2017-11-22T18:30:52.215Z,85.40
2017-11-22T18:33:21.381Z,85.90
2017-11-22T18:35:49.751Z,86.40
2017-11-22T18:38:18.144Z,86.90
2017-11-22T18:40:46.519Z,87.10
2017-11-22T18:43:14.562Z,87.20
2017-11-22T18:45:43.386Z,86.60
2017-11-22T18:48:11.769Z,86.60
2017-11-22T18:50:40.153Z,85.80
2017-11-22T18:53:08.548Z,85.90
2017-11-22T18:55:36.918Z,86.30
2017-11-22T18:58:04.970Z,87.00
2017-11-22T19:00:32.696Z,86.20
2017-11-22T19:03:01.846Z,84.70
2017-11-22T19:05:29.900Z,84.60
2017-11-22T19:07:57.655Z,84.40
2017-11-22T19:10:26.215Z,84.60
2017-11-22T19:12:54.591Z,84.90
2017-11-22T19:15:22.970Z,85.20
2017-11-22T19:17:51.415Z,85.80
2017-11-22T19:20:19.800Z,86.70
2017-11-22T19:22:48.955Z,89.10
2017-11-22T19:25:17.417Z,88.10
2017-11-22T19:27:45.799Z,88.50
2017-11-22T19:30:14.182Z,88.70
2017-11-22T19:32:42.596Z,89.00
2017-11-22T19:35:10.980Z,89.10
2017-11-22T19:37:39.909Z,89.30
2017-11-22T19:40:08.453Z,90.10
2017-11-22T19:42:36.880Z,90.00
2017-11-22T19:45:05.780Z,90.10
2017-11-22T19:47:34.170Z,90.30
2017-11-22T19:50:02.534Z,90.20
2017-11-22T19:55:05.715Z,90.00
2017-11-22T19:57:34.113Z,89.60
2017-11-22T20:00:02.505Z,89.10
2017-11-22T20:02:30.875Z,89.20
2017-11-22T20:04:59.269Z,89.60
2017-11-22T20:07:38.864Z,89.90
2017-11-22T20:10:07.252Z,89.70
2017-11-22T20:12:35.640Z,89.40
2017-11-22T20:15:04.119Z,89.50
2017-11-22T20:17:31.848Z,89.60
2017-11-22T20:20:00.991Z,90.00
2017-11-22T20:22:29.370Z,90.00
2017-11-22T20:24:57.751Z,89.40
2017-11-22T20:27:26.132Z,88.60
2017-11-22T20:29:54.506Z,88.30
2017-11-22T20:32:22.895Z,88.00
2017-11-22T20:34:51.266Z,88.20
2017-11-22T20:37:19.655Z,88.80
2017-11-22T20:39:48.058Z,89.20
2017-11-22T20:42:16.616Z,88.80
2017-11-22T20:44:45.008Z,88.50
2017-11-22T20:47:14.165Z,87.90
2017-11-22T20:49:42.538Z,87.80
2017-11-22T20:52:11.032Z,88.30
2017-11-22T20:54:39.487Z,89.10
2017-11-22T20:57:07.872Z,89.70
2017-11-22T20:59:36.380Z,89.70
2017-11-22T21:02:04.771Z,89.90
2017-11-22T21:04:33.149Z,90.00
2017-11-22T21:07:01.524Z,89.70
2017-11-22T21:09:29.907Z,89.60
2017-11-22T21:11:58.360Z,89.30
2017-11-22T21:14:26.807Z,89.60
2017-11-22T21:16:55.215Z,90.00
2017-11-22T21:19:23.598Z,90.10
2017-11-22T21:21:51.990Z,90.30
2017-11-22T21:24:20.375Z,90.40
2017-11-22T21:26:48.746Z,90.50
2017-11-22T21:29:21.285Z,90.50
2017-11-22T21:31:51.599Z,90.50
2017-11-22T21:34:20.001Z,90.90
2017-11-22T21:36:48.397Z,91.00
2017-11-22T21:39:16.810Z,91.20
2017-11-22T21:41:45.965Z,91.80
2017-11-22T21:44:14.376Z,91.40
2017-11-22T21:46:43.527Z,91.60
2017-11-22T21:49:11.596Z,91.60
2017-11-22T21:51:39.977Z,91.80
2017-11-22T21:54:08.360Z,92.10
2017-11-22T21:56:36.775Z,92.10
2017-11-22T21:59:05.609Z,92.10
2017-11-22T22:01:33.996Z,92.10
2017-11-22T22:04:02.387Z,92.50
2017-11-22T22:06:30.779Z,92.20
2017-11-22T22:08:59.164Z,92.20
2017-11-22T22:11:28.310Z,92.10
2017-11-22T22:13:56.718Z,92.10
2017-11-22T22:16:25.096Z,92.10
2017-11-22T22:18:53.472Z,92.00
2017-11-22T22:21:21.863Z,91.90
2017-11-22T22:23:51.019Z,92.20
2017-11-22T22:26:19.395Z,92.20
2017-11-22T22:28:47.775Z,92.10
2017-11-22T22:31:16.250Z,92.10
2017-11-22T22:33:44.630Z,91.70
2017-11-22T22:36:13.851Z,91.20
2017-11-22T22:38:42.221Z,90.40
2017-11-22T22:41:10.622Z,89.90
2017-11-22T22:43:39.184Z,89.10
2017-11-22T22:46:07.579Z,88.70
2017-11-22T22:48:35.954Z,88.70
2017-11-22T22:51:04.332Z,88.40
2017-11-22T22:53:32.714Z,87.80
2017-11-22T22:56:01.090Z,87.80
2017-11-22T22:58:29.476Z,87.60
2017-11-22T23:00:57.856Z,87.40
2017-11-22T23:03:26.240Z,87.60
2017-11-22T23:05:55.403Z,86.90
2017-11-22T23:08:23.775Z,86.90
2017-11-22T23:10:52.156Z,86.50
2017-11-22T23:13:21.342Z,86.00
2017-11-22T23:15:49.716Z,85.60
2017-11-22T23:18:17.938Z,85.90
2017-11-22T23:20:47.750Z,85.90
2017-11-22T23:23:16.892Z,86.40
2017-11-22T23:25:45.273Z,86.00
2017-11-22T23:28:13.655Z,86.80
2017-11-22T23:30:42.032Z,87.10
2017-11-22T23:33:11.230Z,87.40
2017-11-22T23:35:39.623Z,87.40
2017-11-22T23:38:07.995Z,87.30
2017-11-22T23:40:36.375Z,87.00
2017-11-22T23:43:04.771Z,86.80
2017-11-22T23:45:33.180Z,86.50
2017-11-22T23:48:01.718Z,86.10
2017-11-22T23:50:30.112Z,86.00
2017-11-22T23:53:00.366Z,86.10
2017-11-22T23:55:28.760Z,86.20
2017-11-22T23:57:57.142Z,86.30
